DAAT/TMR METAR and TAF weather

Enter ICAO airport designator
Station Type Date Time Source
DAAT METAR 2019/08/24 10:00 UTC NOAA

DAAT 241000Z 15006KT 100V230 8000 FEW046 SCT100 31/11 Q1023


Station Type Date Time Source
DAAT Decoded METAR 2019/08/24 10:00 UTC NOAA

Station name not available
Aug 24, 2019 - 06:00 AM EDT / 2019.08.24 1000 UTC
Wind: from the SSE (150 degrees) at 7 MPH (6 KT) (direction variable):0
Visibility: 4 mile(s):0
Sky conditions: partly cloudy
Temperature: 87 F (31 C)
Dew Point: 51 F (11 C)
Relative Humidity: 29%
Pressure (altimeter): 30.21 in. Hg (1023 hPa)
ob: DAAT 241000Z 15006KT 100V230 8000 FEW046 SCT100 31/11 Q1023
cycle: 10

Station Type Date Time Source
DAAT TAF 2019/08/24 06:33 UTC NOAA

TAF DAAT 240500Z 2406/2506 08008KT 7000 FEW046 PROB40 2406/2412 3000 HZ PROB40
TEMPO 2412/2421 12015G30KT 5000 -TSRA FEW040CB SCT046TCU

Example: see airport list